createdAt,value
2018-05-21T00:01:34.660Z,12.42
2018-05-21T00:04:02.586Z,12.43
2018-05-21T00:06:30.836Z,12.50
2018-05-21T00:08:58.750Z,12.48
2018-05-21T00:11:26.686Z,12.31
2018-05-21T00:13:54.590Z,12.37
2018-05-21T00:16:22.506Z,12.46
2018-05-21T00:18:50.404Z,12.61
2018-05-21T00:21:18.356Z,12.58
2018-05-21T00:23:46.394Z,12.59
2018-05-21T00:26:14.300Z,12.62
2018-05-21T00:28:42.344Z,12.73
2018-05-21T00:31:10.243Z,12.82
2018-05-21T00:33:38.148Z,12.70
2018-05-21T00:36:06.065Z,12.76
2018-05-21T00:38:34.080Z,12.86
2018-05-21T00:41:02.019Z,12.79
2018-05-21T00:43:29.926Z,12.67
2018-05-21T00:45:57.871Z,12.80
2018-05-21T00:48:25.793Z,12.76
2018-05-21T00:50:53.685Z,12.77
2018-05-21T00:53:21.595Z,12.78
2018-05-21T00:55:49.580Z,12.85
2018-05-21T00:58:17.618Z,12.59
2018-05-21T01:00:45.517Z,12.56
2018-05-21T01:03:13.480Z,12.60
2018-05-21T01:05:41.459Z,12.70
2018-05-21T01:08:09.574Z,12.53
2018-05-21T01:10:37.484Z,12.49
2018-05-21T01:13:05.412Z,12.63
2018-05-21T01:15:33.320Z,12.64
2018-05-21T01:18:01.258Z,12.67
2018-05-21T01:20:29.168Z,12.70
2018-05-21T01:22:57.088Z,12.63
2018-05-21T01:25:24.993Z,12.70
2018-05-21T01:27:53.026Z,12.65
2018-05-21T01:30:21.017Z,12.62
2018-05-21T01:32:49.189Z,12.40
2018-05-21T01:35:17.111Z,12.43
2018-05-21T01:37:45.037Z,12.38
2018-05-21T01:40:13.004Z,12.37
2018-05-21T01:42:40.911Z,12.32
2018-05-21T01:45:08.830Z,12.40
2018-05-21T01:47:36.778Z,12.20
2018-05-21T01:50:04.696Z,12.32
2018-05-21T01:52:32.603Z,12.22
2018-05-21T01:55:00.547Z,12.33
2018-05-21T01:57:28.484Z,12.37
2018-05-21T01:59:56.539Z,12.27
2018-05-21T02:02:24.428Z,12.02
2018-05-21T02:04:52.367Z,11.96
2018-05-21T02:07:20.275Z,12.06
2018-05-21T02:09:48.184Z,12.12
2018-05-21T02:12:16.261Z,11.89
2018-05-21T02:14:44.153Z,12.01
2018-05-21T02:17:12.088Z,12.11
2018-05-21T02:19:40.077Z,12.11
2018-05-21T02:22:08.038Z,12.18
2018-05-21T02:24:35.949Z,12.30
2018-05-21T02:27:03.877Z,12.29
2018-05-21T02:29:31.802Z,12.25
2018-05-21T02:31:59.722Z,12.26
2018-05-21T02:34:27.665Z,12.18
2018-05-21T02:36:56.424Z,12.11
2018-05-21T02:39:24.298Z,12.16
2018-05-21T02:41:52.416Z,12.06
2018-05-21T02:44:20.315Z,12.17
2018-05-21T02:46:48.220Z,12.05
2018-05-21T02:49:16.150Z,12.10
2018-05-21T02:51:44.075Z,12.17
2018-05-21T02:54:11.968Z,12.11
2018-05-21T02:56:39.884Z,12.02
2018-05-21T02:59:07.802Z,12.02
2018-05-21T03:01:35.728Z,12.06
2018-05-21T03:04:03.638Z,12.16
2018-05-21T03:06:31.632Z,12.11
2018-05-21T03:08:59.564Z,12.02
2018-05-21T03:11:27.556Z,12.13
2018-05-21T03:13:55.566Z,12.15
2018-05-21T03:16:24.508Z,12.21
2018-05-21T03:18:52.625Z,12.25
2018-05-21T03:21:20.662Z,12.13
2018-05-21T03:23:48.564Z,12.00
2018-05-21T03:26:16.538Z,12.20
2018-05-21T03:28:44.436Z,12.11
2018-05-21T03:31:12.360Z,12.03
2018-05-21T03:33:40.298Z,12.05
2018-05-21T03:36:08.207Z,12.03
2018-05-21T03:38:36.113Z,11.94
2018-05-21T03:41:04.068Z,11.87
2018-05-21T03:43:31.971Z,11.76
2018-05-21T03:45:59.901Z,11.73
2018-05-21T03:48:27.807Z,11.77
2018-05-21T03:50:55.732Z,11.75
2018-05-21T03:53:23.660Z,11.87
2018-05-21T03:55:51.636Z,11.83
2018-05-21T03:58:31.438Z,11.83
2018-05-21T04:01:11.115Z,11.96
2018-05-21T04:03:55.983Z,11.94
2018-05-21T04:06:23.987Z,11.92
2018-05-21T04:08:51.904Z,11.97
2018-05-21T04:11:19.825Z,12.06
2018-05-21T04:13:47.738Z,12.03
2018-05-21T04:16:15.685Z,12.11
2018-05-21T04:18:43.691Z,12.05
2018-05-21T04:21:11.595Z,12.11
2018-05-21T04:23:39.538Z,12.02
2018-05-21T04:26:07.453Z,12.01
2018-05-21T04:28:35.364Z,12.18
2018-05-21T04:31:03.271Z,12.26
2018-05-21T04:33:31.203Z,12.26
2018-05-21T04:35:59.107Z,12.30
2018-05-21T04:38:27.048Z,12.31
2018-05-21T04:40:54.986Z,12.33
2018-05-21T04:43:22.926Z,12.41
2018-05-21T04:45:50.851Z,12.41
2018-05-21T04:48:19.030Z,12.47
2018-05-21T04:50:46.934Z,12.58
2018-05-21T04:53:14.881Z,12.72
2018-05-21T04:55:42.786Z,12.78
2018-05-21T04:58:11.196Z,12.77
2018-05-21T05:00:39.456Z,12.79
2018-05-21T05:03:07.419Z,12.82
2018-05-21T05:05:35.331Z,12.82
2018-05-21T05:08:03.262Z,13.03
2018-05-21T05:10:31.182Z,13.12
2018-05-21T05:12:59.135Z,13.05
2018-05-21T05:15:27.127Z,13.08
2018-05-21T05:17:55.093Z,13.19
2018-05-21T05:20:23.027Z,13.25
2018-05-21T05:22:50.944Z,13.36
2018-05-21T05:25:18.870Z,13.36
2018-05-21T05:27:46.773Z,13.43
2018-05-21T05:30:14.746Z,13.47
2018-05-21T05:32:42.659Z,13.54
2018-05-21T05:35:10.619Z,13.64
2018-05-21T05:37:38.526Z,13.66
2018-05-21T05:40:06.440Z,13.74
2018-05-21T05:42:34.352Z,13.86
2018-05-21T05:45:02.278Z,13.98
2018-05-21T05:47:30.216Z,14.08
2018-05-21T05:49:58.124Z,14.22
2018-05-21T05:52:26.062Z,14.30
2018-05-21T05:54:53.984Z,14.33
2018-05-21T05:57:21.929Z,14.32
2018-05-21T05:59:50.648Z,14.42
2018-05-21T06:02:18.555Z,14.59
2018-05-21T06:04:46.467Z,14.68
2018-05-21T06:07:14.395Z,14.84
2018-05-21T06:09:42.821Z,14.91
2018-05-21T06:12:10.784Z,14.99
2018-05-21T06:14:38.725Z,15.10
2018-05-21T06:17:07.591Z,15.28
2018-05-21T06:19:35.584Z,15.36
2018-05-21T06:22:03.528Z,15.26
2018-05-21T06:24:31.466Z,15.18
2018-05-21T06:26:59.380Z,15.31
2018-05-21T06:29:27.317Z,15.52
2018-05-21T06:31:55.467Z,15.71
2018-05-21T06:34:23.524Z,15.88
2018-05-21T06:36:51.335Z,15.90
2018-05-21T06:39:19.279Z,15.92
2018-05-21T06:41:47.227Z,15.89
2018-05-21T06:44:15.142Z,15.85
2018-05-21T06:46:43.072Z,15.89
2018-05-21T06:49:11.032Z,16.08
2018-05-21T06:51:39.035Z,16.21
2018-05-21T06:54:07.023Z,16.36
2018-05-21T06:56:35.063Z,16.52
2018-05-21T06:59:03.578Z,16.58
2018-05-21T07:01:31.508Z,16.78
2018-05-21T07:03:59.446Z,16.92
2018-05-21T07:06:27.377Z,17.21
2018-05-21T07:08:55.299Z,17.31
2018-05-21T07:11:23.267Z,17.79
2018-05-21T07:13:51.216Z,18.04
2018-05-21T07:16:19.142Z,18.20
2018-05-21T07:18:47.048Z,18.36
2018-05-21T07:21:14.978Z,18.10
2018-05-21T07:23:42.891Z,18.06
2018-05-21T07:26:10.803Z,18.10
2018-05-21T07:28:38.806Z,18.52
2018-05-21T07:31:06.730Z,18.56
2018-05-21T07:33:34.667Z,19.00
2018-05-21T07:36:02.671Z,19.14
2018-05-21T07:38:30.688Z,19.06
2018-05-21T07:40:58.655Z,19.02
2018-05-21T07:43:26.572Z,19.12
2018-05-21T07:45:54.501Z,19.55
2018-05-21T07:48:22.524Z,19.68
2018-05-21T07:50:50.480Z,19.86
2018-05-21T07:53:18.576Z,19.98
2018-05-21T07:55:46.519Z,20.53
2018-05-21T07:58:14.501Z,20.80
2018-05-21T08:00:42.395Z,21.30
2018-05-21T08:03:10.353Z,21.28
2018-05-21T08:05:38.267Z,21.34
2018-05-21T08:08:06.252Z,21.35
2018-05-21T08:10:34.232Z,21.73
2018-05-21T08:13:02.144Z,21.74
2018-05-21T08:15:30.238Z,21.75
2018-05-21T08:17:58.165Z,21.68
2018-05-21T08:20:26.102Z,22.11
2018-05-21T08:22:53.987Z,22.40
2018-05-21T08:25:21.971Z,22.29
2018-05-21T08:27:50.001Z,22.29
2018-05-21T08:30:17.926Z,22.91
2018-05-21T08:32:45.825Z,23.03
2018-05-21T08:35:13.788Z,23.30
2018-05-21T08:37:41.702Z,23.52
2018-05-21T08:40:09.652Z,23.74
2018-05-21T08:42:37.607Z,24.10
2018-05-21T08:45:05.493Z,23.66
2018-05-21T08:47:34.268Z,23.68
2018-05-21T08:50:02.192Z,23.50
2018-05-21T08:52:30.113Z,24.08
2018-05-21T08:54:58.026Z,23.94
2018-05-21T08:57:25.975Z,24.23
2018-05-21T08:59:53.898Z,24.59
2018-05-21T09:02:21.808Z,24.36
2018-05-21T09:04:49.777Z,24.29
2018-05-21T09:07:17.660Z,24.51
2018-05-21T09:09:46.268Z,24.94
2018-05-21T09:12:14.203Z,25.23
2018-05-21T09:14:42.130Z,25.67
2018-05-21T09:17:10.632Z,25.68
2018-05-21T09:19:38.546Z,25.40
2018-05-21T09:22:06.466Z,25.56
2018-05-21T09:24:34.380Z,25.04
2018-05-21T09:27:02.393Z,25.45
2018-05-21T09:29:31.279Z,25.69
2018-05-21T09:31:59.195Z,25.64
2018-05-21T09:34:27.104Z,25.46
2018-05-21T09:36:55.030Z,25.61
2018-05-21T09:39:22.937Z,25.63
2018-05-21T09:41:50.927Z,25.37
2018-05-21T09:44:18.832Z,25.33
2018-05-21T09:46:46.770Z,25.03
2018-05-21T09:49:15.249Z,25.23
2018-05-21T09:51:43.165Z,25.31
2018-05-21T09:54:11.117Z,25.61
2018-05-21T09:56:39.080Z,25.74
2018-05-21T09:59:07.031Z,25.95
2018-05-21T10:01:34.923Z,26.38
2018-05-21T10:04:02.861Z,25.92
2018-05-21T10:06:30.816Z,25.49
2018-05-21T10:08:58.758Z,26.18
2018-05-21T10:11:26.732Z,26.20
2018-05-21T10:13:54.986Z,26.87
2018-05-21T10:16:23.421Z,27.12
2018-05-21T10:18:51.356Z,26.78
2018-05-21T10:21:19.339Z,27.01
2018-05-21T10:23:47.783Z,26.87
2018-05-21T10:26:15.698Z,26.85
2018-05-21T10:28:43.656Z,27.32
2018-05-21T10:31:11.633Z,27.07
2018-05-21T10:33:39.517Z,26.56
2018-05-21T10:36:07.451Z,26.53
2018-05-21T10:38:35.365Z,26.98
2018-05-21T10:41:04.268Z,27.21
2018-05-21T10:43:32.196Z,27.36
2018-05-21T10:46:00.219Z,27.45
2018-05-21T10:48:28.153Z,27.27
2018-05-21T10:50:56.094Z,27.17
2018-05-21T10:53:24.107Z,27.22
2018-05-21T10:55:52.027Z,27.08
2018-05-21T10:58:19.967Z,26.84
2018-05-21T11:00:48.417Z,26.50
2018-05-21T11:03:17.663Z,27.11
2018-05-21T11:05:45.586Z,27.19
2018-05-21T11:08:13.539Z,27.53
2018-05-21T11:10:41.464Z,27.32
2018-05-21T11:13:09.377Z,27.24
2018-05-21T11:15:37.324Z,26.58
2018-05-21T11:18:05.221Z,27.13
2018-05-21T11:20:33.219Z,27.20
2018-05-21T11:23:01.369Z,27.26
2018-05-21T11:25:29.302Z,27.69
2018-05-21T11:27:57.214Z,27.27
2018-05-21T11:30:25.139Z,26.60
2018-05-21T11:32:53.036Z,27.14
2018-05-21T11:35:20.962Z,26.78
2018-05-21T11:37:48.867Z,26.63
2018-05-21T11:40:16.803Z,26.46
2018-05-21T11:42:44.728Z,25.57
2018-05-21T11:45:12.628Z,25.91
2018-05-21T11:47:40.537Z,26.39
2018-05-21T11:50:08.451Z,26.45
2018-05-21T11:52:36.606Z,26.37
2018-05-21T11:55:04.499Z,26.55
2018-05-21T11:57:32.489Z,26.68
2018-05-21T12:00:00.361Z,26.49
2018-05-21T12:02:28.282Z,26.98
2018-05-21T12:04:56.266Z,27.07
2018-05-21T12:07:24.169Z,26.99
2018-05-21T12:09:52.179Z,27.12
2018-05-21T12:12:20.076Z,26.79
2018-05-21T12:14:48.041Z,27.08
2018-05-21T12:17:16.031Z,27.26
2018-05-21T12:19:43.945Z,27.54
2018-05-21T12:22:11.864Z,27.76
2018-05-21T12:24:39.827Z,28.04
2018-05-21T12:27:07.778Z,27.68
2018-05-21T12:29:35.843Z,27.34
2018-05-21T12:32:03.782Z,27.41
2018-05-21T12:34:31.678Z,27.65
2018-05-21T12:36:59.591Z,27.89
2018-05-21T12:39:27.490Z,28.00
2018-05-21T12:41:55.486Z,27.87
2018-05-21T12:44:23.374Z,27.90
2018-05-21T12:46:51.390Z,27.46
2018-05-21T12:49:19.330Z,27.71
2018-05-21T12:51:47.239Z,27.94
2018-05-21T12:54:15.254Z,27.95
2018-05-21T12:56:43.171Z,27.49
2018-05-21T12:59:11.083Z,27.49
2018-05-21T13:01:39.068Z,27.91
2018-05-21T13:04:06.992Z,27.81
2018-05-21T13:06:34.900Z,27.56
2018-05-21T13:09:02.883Z,27.59
2018-05-21T13:11:30.758Z,27.17
2018-05-21T13:13:58.950Z,27.57
2018-05-21T13:16:26.867Z,27.05
2018-05-21T13:18:54.783Z,27.46
2018-05-21T13:21:23.260Z,26.92
2018-05-21T13:23:51.908Z,26.86
2018-05-21T13:26:19.811Z,26.83
2018-05-21T13:28:47.713Z,26.86
2018-05-21T13:31:15.647Z,26.63
2018-05-21T13:33:43.535Z,26.97
2018-05-21T13:36:11.488Z,27.06
2018-05-21T13:38:39.404Z,27.08
2018-05-21T13:41:07.319Z,26.98
2018-05-21T13:43:35.511Z,26.90
2018-05-21T13:46:03.415Z,26.97
2018-05-21T13:48:31.349Z,26.84
2018-05-21T13:50:59.273Z,26.70
2018-05-21T13:53:27.187Z,26.24
2018-05-21T13:55:55.093Z,26.54
2018-05-21T13:58:22.991Z,26.57
2018-05-21T14:00:50.954Z,26.28
2018-05-21T14:03:18.895Z,26.20
2018-05-21T14:05:47.012Z,25.98
2018-05-21T14:08:14.843Z,26.24
2018-05-21T14:10:42.768Z,26.27
2018-05-21T14:13:10.667Z,26.23
2018-05-21T14:15:39.156Z,26.15
2018-05-21T14:18:07.056Z,25.99
2018-05-21T14:20:35.012Z,25.97
2018-05-21T14:23:02.940Z,26.01
2018-05-21T14:25:30.998Z,25.77
2018-05-21T14:27:58.845Z,25.61
2018-05-21T14:30:26.764Z,25.31
2018-05-21T14:32:54.914Z,25.06
2018-05-21T14:35:22.880Z,25.24
2018-05-21T14:37:50.811Z,25.02
2018-05-21T14:40:18.725Z,25.37
2018-05-21T14:42:46.670Z,25.29
2018-05-21T14:45:14.650Z,25.09
2018-05-21T14:47:42.586Z,24.85
2018-05-21T14:50:10.487Z,24.72
2018-05-21T14:52:39.275Z,24.57
2018-05-21T14:55:07.233Z,24.59
2018-05-21T14:57:35.112Z,24.75
2018-05-21T15:00:03.046Z,24.79
2018-05-21T15:02:30.987Z,24.71
2018-05-21T15:04:58.944Z,24.45
2018-05-21T15:07:26.884Z,24.57
2018-05-21T15:09:54.795Z,24.46
2018-05-21T15:12:22.726Z,24.11
2018-05-21T15:14:50.620Z,24.13
2018-05-21T15:17:18.556Z,24.17
2018-05-21T15:19:46.473Z,24.11
2018-05-21T15:22:14.416Z,23.95
2018-05-21T15:24:42.309Z,23.90
2018-05-21T15:27:10.247Z,23.60
2018-05-21T15:29:38.157Z,23.61
2018-05-21T15:32:06.125Z,23.54
2018-05-21T15:34:34.658Z,23.58
2018-05-21T15:37:02.594Z,23.32
2018-05-21T15:39:30.505Z,23.32
2018-05-21T15:41:58.427Z,23.12
2018-05-21T15:44:26.348Z,23.05
2018-05-21T15:46:54.281Z,22.92
2018-05-21T15:49:22.200Z,23.11
2018-05-21T15:51:50.109Z,23.13
2018-05-21T15:54:18.044Z,22.92
2018-05-21T15:56:45.949Z,22.87
2018-05-21T15:59:13.868Z,22.98
2018-05-21T16:01:41.812Z,22.90
2018-05-21T16:04:09.713Z,22.68
2018-05-21T16:06:37.634Z,22.71
2018-05-21T16:09:05.547Z,22.68
2018-05-21T16:11:33.450Z,22.88
2018-05-21T16:14:01.352Z,22.73
2018-05-21T16:16:29.296Z,22.53
2018-05-21T16:18:57.214Z,22.58
2018-05-21T16:21:25.139Z,22.46
2018-05-21T16:23:53.151Z,22.41
2018-05-21T16:26:21.072Z,22.32
2018-05-21T16:28:48.982Z,22.33
2018-05-21T16:31:16.918Z,22.40
2018-05-21T16:33:45.026Z,22.36
2018-05-21T16:36:12.933Z,22.28
2018-05-21T16:38:40.834Z,22.32
2018-05-21T16:41:08.845Z,22.25
2018-05-21T16:43:36.895Z,22.01
2018-05-21T16:46:04.808Z,22.05
2018-05-21T16:48:32.762Z,21.97
2018-05-21T16:51:00.692Z,21.91
2018-05-21T16:53:28.755Z,22.14
2018-05-21T16:55:56.655Z,21.98
2018-05-21T16:58:24.589Z,22.13
2018-05-21T17:00:52.507Z,22.10
2018-05-21T17:03:20.493Z,21.96
2018-05-21T17:05:48.411Z,21.79
2018-05-21T17:08:16.316Z,21.85
2018-05-21T17:10:44.230Z,21.72
2018-05-21T17:13:12.146Z,21.59
2018-05-21T17:15:40.067Z,21.62
2018-05-21T17:18:08.702Z,21.65
2018-05-21T17:20:36.612Z,21.53
2018-05-21T17:23:04.540Z,21.48
2018-05-21T17:25:32.474Z,21.35
2018-05-21T17:28:00.409Z,21.28
2018-05-21T17:30:28.331Z,21.32
2018-05-21T17:32:56.260Z,21.29
2018-05-21T17:35:24.223Z,21.27
2018-05-21T17:37:52.131Z,21.17
2018-05-21T17:40:20.048Z,21.05
2018-05-21T17:42:48.873Z,21.05
2018-05-21T17:45:16.798Z,21.02
2018-05-21T17:47:44.715Z,21.01
2018-05-21T17:50:12.662Z,20.87
2018-05-21T17:52:41.549Z,20.90
2018-05-21T17:55:09.480Z,20.90
2018-05-21T17:57:38.392Z,20.84
2018-05-21T18:00:06.289Z,20.61
2018-05-21T18:02:34.188Z,20.77
2018-05-21T18:05:02.123Z,20.57
2018-05-21T18:07:30.041Z,20.58
2018-05-21T18:09:57.943Z,20.35
2018-05-21T18:12:25.864Z,20.31
2018-05-21T18:14:53.775Z,20.20
2018-05-21T18:17:21.699Z,20.18
2018-05-21T18:19:49.629Z,20.17
2018-05-21T18:22:17.561Z,20.07
2018-05-21T18:24:45.472Z,20.07
2018-05-21T18:27:13.392Z,20.06
2018-05-21T18:29:41.297Z,20.02
2018-05-21T18:32:09.233Z,19.91
2018-05-21T18:34:37.139Z,20.02
2018-05-21T18:37:05.074Z,19.95
2018-05-21T18:39:32.961Z,19.77
2018-05-21T18:42:00.932Z,19.72
2018-05-21T18:44:28.841Z,19.80
2018-05-21T18:46:56.760Z,19.75
2018-05-21T18:49:24.714Z,19.70
2018-05-21T18:51:52.636Z,19.53
2018-05-21T18:54:20.547Z,19.53
2018-05-21T18:56:48.494Z,19.35
2018-05-21T18:59:16.387Z,19.28
2018-05-21T19:01:44.341Z,19.42
2018-05-21T19:04:13.064Z,19.46
2018-05-21T19:06:40.971Z,19.29
2018-05-21T19:09:08.880Z,19.21
2018-05-21T19:11:36.825Z,19.08
2018-05-21T19:14:04.757Z,18.98
2018-05-21T19:16:32.709Z,18.91
2018-05-21T19:19:00.641Z,18.80
2018-05-21T19:21:28.555Z,18.79
2018-05-21T19:23:56.529Z,18.69
2018-05-21T19:26:24.510Z,18.49
2018-05-21T19:28:52.442Z,18.57
2018-05-21T19:31:20.435Z,18.50
2018-05-21T19:33:48.415Z,18.28
2018-05-21T19:36:16.372Z,18.32
2018-05-21T19:38:44.283Z,18.36
2018-05-21T19:41:12.211Z,18.20
2018-05-21T19:43:40.154Z,18.08
2018-05-21T19:46:08.097Z,18.06
2018-05-21T19:48:36.012Z,17.90
2018-05-21T19:51:04.016Z,17.72
2018-05-21T19:53:31.944Z,17.83
2018-05-21T19:56:00.069Z,17.77
2018-05-21T19:58:27.978Z,17.52
2018-05-21T20:00:55.887Z,17.39
2018-05-21T20:03:23.806Z,17.45
2018-05-21T20:05:51.740Z,17.53
2018-05-21T20:08:19.825Z,17.39
2018-05-21T20:10:47.855Z,17.35
2018-05-21T20:13:15.792Z,17.28
2018-05-21T20:15:43.729Z,17.29
2018-05-21T20:18:11.620Z,17.18
2018-05-21T20:20:41.523Z,17.41
2018-05-21T20:23:09.437Z,17.34
2018-05-21T20:25:37.376Z,17.10
2018-05-21T20:28:05.295Z,17.16
2018-05-21T20:30:33.285Z,17.02
2018-05-21T20:33:01.235Z,16.96
2018-05-21T20:35:29.227Z,16.91
2018-05-21T20:37:57.139Z,16.87
2018-05-21T20:40:25.051Z,16.94
2018-05-21T20:42:53.037Z,16.94
2018-05-21T20:45:21.040Z,16.87
2018-05-21T20:47:48.915Z,16.96
2018-05-21T20:50:16.873Z,16.77
2018-05-21T20:52:44.939Z,16.75
2018-05-21T20:55:12.844Z,16.69
2018-05-21T20:57:40.774Z,16.67
2018-05-21T21:00:08.682Z,16.46
2018-05-21T21:02:36.658Z,16.46
2018-05-21T21:05:04.712Z,16.39
2018-05-21T21:07:32.654Z,16.43
2018-05-21T21:10:00.571Z,16.51
2018-05-21T21:12:28.499Z,16.35
2018-05-21T21:14:56.619Z,16.40
2018-05-21T21:17:24.518Z,16.31
2018-05-21T21:19:52.463Z,16.16
2018-05-21T21:22:20.415Z,16.04
2018-05-21T21:24:48.326Z,16.11
2018-05-21T21:27:16.250Z,15.96
2018-05-21T21:29:44.405Z,16.02
2018-05-21T21:32:12.352Z,16.19
2018-05-21T21:34:40.276Z,15.93
2018-05-21T21:37:08.165Z,16.02
2018-05-21T21:39:36.117Z,15.98
2018-05-21T21:42:04.636Z,16.03
2018-05-21T21:44:32.634Z,15.87
2018-05-21T21:47:00.465Z,16.05
2018-05-21T21:49:28.583Z,15.78
2018-05-21T21:51:56.562Z,15.78
2018-05-21T21:54:24.502Z,15.81
2018-05-21T21:56:52.404Z,15.73
2018-05-21T21:59:20.341Z,15.85
2018-05-21T22:01:48.270Z,15.90
2018-05-21T22:04:16.221Z,15.76
2018-05-21T22:06:44.145Z,15.63
2018-05-21T22:09:12.122Z,15.71
2018-05-21T22:11:40.088Z,15.77
2018-05-21T22:14:08.039Z,15.69
2018-05-21T22:16:35.997Z,15.71
2018-05-21T22:19:03.888Z,15.62
2018-05-21T22:21:31.795Z,15.69
2018-05-21T22:23:59.715Z,15.63
2018-05-21T22:26:27.655Z,15.77
2018-05-21T22:28:55.557Z,15.51
2018-05-21T22:31:23.496Z,15.52
2018-05-21T22:33:51.402Z,15.46
2018-05-21T22:36:19.347Z,15.45
2018-05-21T22:38:47.286Z,15.34
2018-05-21T22:41:15.214Z,15.24
2018-05-21T22:43:43.131Z,15.26
2018-05-21T22:46:11.124Z,15.13
2018-05-21T22:48:39.100Z,15.04
2018-05-21T22:51:07.049Z,15.02
2018-05-21T22:53:34.964Z,15.27
2018-05-21T22:56:02.919Z,15.34
2018-05-21T22:58:30.887Z,15.32
2018-05-21T23:00:58.838Z,15.33
2018-05-21T23:03:26.759Z,15.30
2018-05-21T23:05:54.689Z,15.24
2018-05-21T23:08:22.658Z,15.14
2018-05-21T23:10:50.583Z,15.15
2018-05-21T23:13:18.514Z,15.29
2018-05-21T23:15:46.459Z,15.30
2018-05-21T23:18:14.395Z,15.22
2018-05-21T23:20:42.307Z,15.15
2018-05-21T23:23:10.246Z,15.11
2018-05-21T23:25:38.176Z,15.00
2018-05-21T23:28:06.113Z,15.06
2018-05-21T23:30:34.224Z,15.09
2018-05-21T23:33:02.142Z,15.06
2018-05-21T23:35:30.135Z,15.03
2018-05-21T23:37:58.051Z,15.00
2018-05-21T23:40:25.985Z,14.94
2018-05-21T23:42:53.893Z,14.87
2018-05-21T23:45:21.834Z,14.73
2018-05-21T23:47:49.774Z,14.98
2018-05-21T23:50:17.815Z,14.87
2018-05-21T23:52:45.753Z,14.84
2018-05-21T23:55:13.669Z,14.86
2018-05-21T23:57:41.575Z,14.81
